sensor_id;sensor_type;location;lat;lon;timestamp;P1;durP1;ratioP1;P2;durP2;ratioP2
31061;SDS011;17724;53.546;9.974;2023-07-31T00:03:01;9.37;;;2.17;;
31061;SDS011;17724;53.546;9.974;2023-07-31T00:07:02;6.77;;;2.00;;
31061;SDS011;17724;53.546;9.974;2023-07-31T00:11:04;6.90;;;2.17;;
31061;SDS011;17724;53.546;9.974;2023-07-31T00:15:05;8.40;;;2.20;;
31061;SDS011;17724;53.546;9.974;2023-07-31T00:19:06;9.53;;;2.07;;
31061;SDS011;17724;53.546;9.974;2023-07-31T00:23:07;7.67;;;1.90;;
31061;SDS011;17724;53.546;9.974;2023-07-31T00:27:07;8.50;;;2.10;;
31061;SDS011;17724;53.546;9.974;2023-07-31T00:31:08;8.40;;;2.20;;
31061;SDS011;17724;53.546;9.974;2023-07-31T00:35:08;8.37;;;2.10;;
31061;SDS011;17724;53.546;9.974;2023-07-31T00:39:09;8.13;;;1.73;;
31061;SDS011;17724;53.546;9.974;2023-07-31T00:43:09;10.77;;;2.57;;
31061;SDS011;17724;53.546;9.974;2023-07-31T00:47:10;9.37;;;2.10;;
31061;SDS011;17724;53.546;9.974;2023-07-31T00:51:10;7.20;;;2.10;;
31061;SDS011;17724;53.546;9.974;2023-07-31T00:55:11;7.60;;;2.10;;
31061;SDS011;17724;53.546;9.974;2023-07-31T00:59:12;7.10;;;2.80;;
31061;SDS011;17724;53.546;9.974;2023-07-31T01:03:13;8.73;;;3.00;;
31061;SDS011;17724;53.546;9.974;2023-07-31T01:07:27;7.83;;;2.63;;
31061;SDS011;17724;53.546;9.974;2023-07-31T01:11:36;8.47;;;2.70;;
31061;SDS011;17724;53.546;9.974;2023-07-31T01:15:43;9.50;;;2.60;;
31061;SDS011;17724;53.546;9.974;2023-07-31T01:19:43;6.83;;;2.40;;
31061;SDS011;17724;53.546;9.974;2023-07-31T01:28:11;9.13;;;3.10;;
31061;SDS011;17724;53.546;9.974;2023-07-31T01:32:15;6.60;;;2.30;;
31061;SDS011;17724;53.546;9.974;2023-07-31T01:36:18;7.47;;;2.00;;
31061;SDS011;17724;53.546;9.974;2023-07-31T01:40:19;7.63;;;2.27;;
31061;SDS011;17724;53.546;9.974;2023-07-31T01:44:19;6.80;;;1.93;;
31061;SDS011;17724;53.546;9.974;2023-07-31T01:48:20;9.53;;;2.83;;
31061;SDS011;17724;53.546;9.974;2023-07-31T01:52:20;7.10;;;2.00;;
31061;SDS011;17724;53.546;9.974;2023-07-31T01:56:21;6.43;;;1.90;;
31061;SDS011;17724;53.546;9.974;2023-07-31T02:00:21;9.47;;;2.70;;
31061;SDS011;17724;53.546;9.974;2023-07-31T02:04:22;8.43;;;2.40;;
31061;SDS011;17724;53.546;9.974;2023-07-31T02:08:22;6.70;;;2.07;;
31061;SDS011;17724;53.546;9.974;2023-07-31T02:12:23;6.17;;;2.30;;
31061;SDS011;17724;53.546;9.974;2023-07-31T02:16:23;8.53;;;2.30;;
31061;SDS011;17724;53.546;9.974;2023-07-31T02:20:24;7.70;;;2.10;;
31061;SDS011;17724;53.546;9.974;2023-07-31T02:24:25;7.40;;;2.57;;
31061;SDS011;17724;53.546;9.974;2023-07-31T02:28:25;8.90;;;2.80;;
31061;SDS011;17724;53.546;9.974;2023-07-31T02:32:26;10.20;;;2.47;;
31061;SDS011;17724;53.546;9.974;2023-07-31T02:36:26;7.93;;;2.10;;
31061;SDS011;17724;53.546;9.974;2023-07-31T02:40:26;6.43;;;2.20;;
31061;SDS011;17724;53.546;9.974;2023-07-31T02:44:27;8.00;;;2.10;;
31061;SDS011;17724;53.546;9.974;2023-07-31T02:48:28;7.47;;;2.30;;
31061;SDS011;17724;53.546;9.974;2023-07-31T02:52:28;7.50;;;2.33;;
31061;SDS011;17724;53.546;9.974;2023-07-31T02:56:29;10.53;;;2.23;;
31061;SDS011;17724;53.546;9.974;2023-07-31T03:00:29;9.03;;;2.03;;
31061;SDS011;17724;53.546;9.974;2023-07-31T03:04:30;7.87;;;2.20;;
31061;SDS011;17724;53.546;9.974;2023-07-31T03:08:30;8.10;;;3.40;;
31061;SDS011;17724;53.546;9.974;2023-07-31T03:12:31;8.20;;;2.27;;
31061;SDS011;17724;53.546;9.974;2023-07-31T03:16:32;6.97;;;2.33;;
31061;SDS011;17724;53.546;9.974;2023-07-31T03:20:33;6.97;;;2.37;;
31061;SDS011;17724;53.546;9.974;2023-07-31T03:24:33;7.47;;;2.40;;
31061;SDS011;17724;53.546;9.974;2023-07-31T03:28:34;9.13;;;2.77;;
31061;SDS011;17724;53.546;9.974;2023-07-31T03:32:34;6.07;;;2.60;;
31061;SDS011;17724;53.546;9.974;2023-07-31T03:36:35;8.77;;;1.77;;
31061;SDS011;17724;53.546;9.974;2023-07-31T03:40:35;6.70;;;2.00;;
31061;SDS011;17724;53.546;9.974;2023-07-31T03:44:36;8.87;;;2.20;;
31061;SDS011;17724;53.546;9.974;2023-07-31T03:48:36;5.70;;;2.00;;
31061;SDS011;17724;53.546;9.974;2023-07-31T03:52:37;8.10;;;2.40;;
31061;SDS011;17724;53.546;9.974;2023-07-31T03:56:38;8.80;;;2.20;;
31061;SDS011;17724;53.546;9.974;2023-07-31T04:00:39;6.77;;;2.10;;
31061;SDS011;17724;53.546;9.974;2023-07-31T04:04:40;8.10;;;2.37;;
31061;SDS011;17724;53.546;9.974;2023-07-31T04:08:41;6.27;;;2.00;;
31061;SDS011;17724;53.546;9.974;2023-07-31T04:12:41;6.23;;;2.00;;
31061;SDS011;17724;53.546;9.974;2023-07-31T04:16:42;7.13;;;2.13;;
31061;SDS011;17724;53.546;9.974;2023-07-31T04:20:42;5.53;;;1.70;;
31061;SDS011;17724;53.546;9.974;2023-07-31T04:24:43;6.70;;;2.10;;
31061;SDS011;17724;53.546;9.974;2023-07-31T04:28:43;7.57;;;2.17;;
31061;SDS011;17724;53.546;9.974;2023-07-31T04:32:43;8.03;;;2.37;;
31061;SDS011;17724;53.546;9.974;2023-07-31T04:36:44;6.13;;;2.20;;
31061;SDS011;17724;53.546;9.974;2023-07-31T04:40:44;6.70;;;2.20;;
31061;SDS011;17724;53.546;9.974;2023-07-31T04:44:45;7.63;;;2.07;;
31061;SDS011;17724;53.546;9.974;2023-07-31T04:48:46;5.83;;;1.80;;
31061;SDS011;17724;53.546;9.974;2023-07-31T04:52:46;5.57;;;1.93;;
31061;SDS011;17724;53.546;9.974;2023-07-31T04:56:46;5.37;;;1.70;;
31061;SDS011;17724;53.546;9.974;2023-07-31T05:00:47;6.30;;;2.00;;
31061;SDS011;17724;53.546;9.974;2023-07-31T05:04:48;7.30;;;1.77;;
31061;SDS011;17724;53.546;9.974;2023-07-31T05:08:48;7.17;;;2.03;;
31061;SDS011;17724;53.546;9.974;2023-07-31T05:12:49;5.50;;;1.97;;
31061;SDS011;17724;53.546;9.974;2023-07-31T05:16:49;5.77;;;1.77;;
31061;SDS011;17724;53.546;9.974;2023-07-31T05:20:49;5.70;;;1.80;;
31061;SDS011;17724;53.546;9.974;2023-07-31T05:24:50;5.97;;;1.90;;
31061;SDS011;17724;53.546;9.974;2023-07-31T05:28:50;6.97;;;2.00;;
31061;SDS011;17724;53.546;9.974;2023-07-31T05:32:51;7.60;;;1.93;;
31061;SDS011;17724;53.546;9.974;2023-07-31T05:36:52;5.20;;;1.67;;
31061;SDS011;17724;53.546;9.974;2023-07-31T05:40:52;5.97;;;2.00;;
31061;SDS011;17724;53.546;9.974;2023-07-31T05:44:53;5.50;;;2.00;;
31061;SDS011;17724;53.546;9.974;2023-07-31T05:48:53;6.20;;;2.27;;
31061;SDS011;17724;53.546;9.974;2023-07-31T05:52:54;5.83;;;2.47;;
31061;SDS011;17724;53.546;9.974;2023-07-31T05:56:54;6.27;;;2.23;;
31061;SDS011;17724;53.546;9.974;2023-07-31T06:00:55;6.10;;;2.60;;
31061;SDS011;17724;53.546;9.974;2023-07-31T06:04:55;5.57;;;2.00;;
31061;SDS011;17724;53.546;9.974;2023-07-31T06:08:56;5.70;;;2.13;;
31061;SDS011;17724;53.546;9.974;2023-07-31T06:12:56;5.50;;;2.00;;
31061;SDS011;17724;53.546;9.974;2023-07-31T06:16:57;5.40;;;1.97;;
31061;SDS011;17724;53.546;9.974;2023-07-31T06:20:57;5.90;;;1.67;;
31061;SDS011;17724;53.546;9.974;2023-07-31T06:24:58;6.27;;;2.00;;
31061;SDS011;17724;53.546;9.974;2023-07-31T06:28:59;5.87;;;2.10;;
31061;SDS011;17724;53.546;9.974;2023-07-31T06:32:59;6.07;;;1.70;;
31061;SDS011;17724;53.546;9.974;2023-07-31T06:37:00;6.00;;;2.00;;
31061;SDS011;17724;53.546;9.974;2023-07-31T06:41:01;5.30;;;1.53;;
31061;SDS011;17724;53.546;9.974;2023-07-31T06:45:02;5.40;;;1.63;;
31061;SDS011;17724;53.546;9.974;2023-07-31T06:49:03;5.50;;;1.90;;
31061;SDS011;17724;53.546;9.974;2023-07-31T06:53:03;6.17;;;1.70;;
31061;SDS011;17724;53.546;9.974;2023-07-31T06:57:04;5.50;;;1.87;;
31061;SDS011;17724;53.546;9.974;2023-07-31T07:01:04;5.60;;;2.03;;
31061;SDS011;17724;53.546;9.974;2023-07-31T07:05:05;5.50;;;2.30;;
31061;SDS011;17724;53.546;9.974;2023-07-31T07:09:07;5.23;;;1.70;;
31061;SDS011;17724;53.546;9.974;2023-07-31T07:13:08;5.60;;;1.93;;
31061;SDS011;17724;53.546;9.974;2023-07-31T07:17:08;6.17;;;2.20;;
31061;SDS011;17724;53.546;9.974;2023-07-31T07:21:09;6.53;;;2.00;;
31061;SDS011;17724;53.546;9.974;2023-07-31T07:25:09;5.60;;;1.50;;
31061;SDS011;17724;53.546;9.974;2023-07-31T07:29:10;5.50;;;1.83;;
31061;SDS011;17724;53.546;9.974;2023-07-31T07:33:11;6.40;;;1.93;;
31061;SDS011;17724;53.546;9.974;2023-07-31T07:37:12;5.40;;;1.40;;
31061;SDS011;17724;53.546;9.974;2023-07-31T07:41:13;7.03;;;1.73;;
31061;SDS011;17724;53.546;9.974;2023-07-31T07:45:13;5.37;;;1.60;;
31061;SDS011;17724;53.546;9.974;2023-07-31T07:49:14;5.87;;;2.00;;
31061;SDS011;17724;53.546;9.974;2023-07-31T07:53:14;6.50;;;2.17;;
31061;SDS011;17724;53.546;9.974;2023-07-31T07:57:14;6.90;;;1.70;;
31061;SDS011;17724;53.546;9.974;2023-07-31T08:01:15;5.70;;;1.90;;
31061;SDS011;17724;53.546;9.974;2023-07-31T08:05:16;5.70;;;1.70;;
31061;SDS011;17724;53.546;9.974;2023-07-31T08:09:17;5.77;;;1.90;;
31061;SDS011;17724;53.546;9.974;2023-07-31T08:13:18;5.83;;;1.70;;
31061;SDS011;17724;53.546;9.974;2023-07-31T08:17:18;5.93;;;1.97;;
31061;SDS011;17724;53.546;9.974;2023-07-31T08:21:19;5.70;;;1.93;;
31061;SDS011;17724;53.546;9.974;2023-07-31T08:25:19;5.80;;;1.97;;
31061;SDS011;17724;53.546;9.974;2023-07-31T08:29:20;5.57;;;1.50;;
31061;SDS011;17724;53.546;9.974;2023-07-31T08:33:23;5.30;;;1.27;;
31061;SDS011;17724;53.546;9.974;2023-07-31T08:37:24;5.60;;;1.33;;
31061;SDS011;17724;53.546;9.974;2023-07-31T08:41:24;6.23;;;1.30;;
31061;SDS011;17724;53.546;9.974;2023-07-31T08:45:25;5.27;;;1.60;;
31061;SDS011;17724;53.546;9.974;2023-07-31T08:49:26;6.70;;;1.33;;
31061;SDS011;17724;53.546;9.974;2023-07-31T08:53:28;6.10;;;1.50;;
31061;SDS011;17724;53.546;9.974;2023-07-31T08:57:28;6.63;;;1.37;;
31061;SDS011;17724;53.546;9.974;2023-07-31T09:01:29;6.90;;;1.73;;
31061;SDS011;17724;53.546;9.974;2023-07-31T09:05:31;5.50;;;1.60;;
31061;SDS011;17724;53.546;9.974;2023-07-31T09:09:32;6.77;;;1.90;;
31061;SDS011;17724;53.546;9.974;2023-07-31T09:13:33;6.30;;;1.00;;
31061;SDS011;17724;53.546;9.974;2023-07-31T09:17:35;6.03;;;1.30;;
31061;SDS011;17724;53.546;9.974;2023-07-31T09:21:47;6.13;;;1.60;;
31061;SDS011;17724;53.546;9.974;2023-07-31T09:25:48;6.17;;;2.37;;
31061;SDS011;17724;53.546;9.974;2023-07-31T09:29:58;6.20;;;1.70;;
31061;SDS011;17724;53.546;9.974;2023-07-31T09:33:59;5.30;;;1.43;;
31061;SDS011;17724;53.546;9.974;2023-07-31T09:38:03;6.33;;;1.13;;
31061;SDS011;17724;53.546;9.974;2023-07-31T09:42:07;5.67;;;1.43;;
31061;SDS011;17724;53.546;9.974;2023-07-31T09:46:13;5.60;;;1.57;;
31061;SDS011;17724;53.546;9.974;2023-07-31T09:50:14;8.77;;;1.93;;
31061;SDS011;17724;53.546;9.974;2023-07-31T09:54:16;9.10;;;3.80;;
31061;SDS011;17724;53.546;9.974;2023-07-31T09:58:17;8.80;;;1.60;;
31061;SDS011;17724;53.546;9.974;2023-07-31T10:02:20;7.00;;;1.90;;
31061;SDS011;17724;53.546;9.974;2023-07-31T10:06:22;8.37;;;2.60;;
31061;SDS011;17724;53.546;9.974;2023-07-31T10:10:24;5.80;;;1.67;;
31061;SDS011;17724;53.546;9.974;2023-07-31T10:14:25;7.30;;;3.70;;
31061;SDS011;17724;53.546;9.974;2023-07-31T10:18:27;7.53;;;3.53;;
31061;SDS011;17724;53.546;9.974;2023-07-31T10:22:28;5.50;;;1.47;;
31061;SDS011;17724;53.546;9.974;2023-07-31T10:26:33;6.17;;;1.50;;
31061;SDS011;17724;53.546;9.974;2023-07-31T10:30:35;5.43;;;1.67;;
31061;SDS011;17724;53.546;9.974;2023-07-31T10:34:38;4.83;;;1.20;;
31061;SDS011;17724;53.546;9.974;2023-07-31T10:38:40;6.47;;;1.70;;
31061;SDS011;17724;53.546;9.974;2023-07-31T10:42:47;5.20;;;1.30;;
31061;SDS011;17724;53.546;9.974;2023-07-31T10:46:49;5.50;;;1.47;;
31061;SDS011;17724;53.546;9.974;2023-07-31T10:50:50;5.20;;;1.23;;
31061;SDS011;17724;53.546;9.974;2023-07-31T10:55:13;5.00;;;0.80;;
31061;SDS011;17724;53.546;9.974;2023-07-31T10:59:15;5.10;;;1.00;;
31061;SDS011;17724;53.546;9.974;2023-07-31T11:03:18;6.50;;;2.30;;
31061;SDS011;17724;53.546;9.974;2023-07-31T11:07:22;8.60;;;4.07;;
31061;SDS011;17724;53.546;9.974;2023-07-31T11:11:23;14.37;;;8.03;;
31061;SDS011;17724;53.546;9.974;2023-07-31T11:15:26;12.57;;;7.63;;
31061;SDS011;17724;53.546;9.974;2023-07-31T11:19:27;12.13;;;8.17;;
31061;SDS011;17724;53.546;9.974;2023-07-31T11:23:27;11.10;;;5.83;;
31061;SDS011;17724;53.546;9.974;2023-07-31T11:27:28;12.00;;;7.47;;
31061;SDS011;17724;53.546;9.974;2023-07-31T11:31:29;10.43;;;5.83;;
31061;SDS011;17724;53.546;9.974;2023-07-31T11:35:35;8.83;;;4.30;;
31061;SDS011;17724;53.546;9.974;2023-07-31T11:39:42;8.63;;;5.00;;
31061;SDS011;17724;53.546;9.974;2023-07-31T11:43:43;11.20;;;4.70;;
31061;SDS011;17724;53.546;9.974;2023-07-31T11:47:43;8.13;;;3.20;;
31061;SDS011;17724;53.546;9.974;2023-07-31T11:51:44;8.07;;;2.60;;
31061;SDS011;17724;53.546;9.974;2023-07-31T11:55:45;7.07;;;2.53;;
31061;SDS011;17724;53.546;9.974;2023-07-31T11:59:46;8.20;;;3.40;;
31061;SDS011;17724;53.546;9.974;2023-07-31T12:03:47;10.90;;;6.60;;
31061;SDS011;17724;53.546;9.974;2023-07-31T12:07:50;10.80;;;4.47;;
31061;SDS011;17724;53.546;9.974;2023-07-31T12:11:53;12.90;;;7.33;;
31061;SDS011;17724;53.546;9.974;2023-07-31T12:15:54;14.73;;;5.60;;
31061;SDS011;17724;53.546;9.974;2023-07-31T12:19:57;7.87;;;3.20;;
31061;SDS011;17724;53.546;9.974;2023-07-31T12:23:59;7.70;;;3.00;;
31061;SDS011;17724;53.546;9.974;2023-07-31T12:28:06;11.53;;;6.80;;
31061;SDS011;17724;53.546;9.974;2023-07-31T12:32:18;13.80;;;10.90;;
31061;SDS011;17724;53.546;9.974;2023-07-31T12:36:24;31.17;;;27.87;;
31061;SDS011;17724;53.546;9.974;2023-07-31T12:40:24;25.70;;;16.20;;
31061;SDS011;17724;53.546;9.974;2023-07-31T12:44:25;19.90;;;13.67;;
31061;SDS011;17724;53.546;9.974;2023-07-31T12:48:25;12.67;;;6.93;;
31061;SDS011;17724;53.546;9.974;2023-07-31T12:52:26;27.30;;;15.20;;
31061;SDS011;17724;53.546;9.974;2023-07-31T12:56:26;18.40;;;12.13;;
31061;SDS011;17724;53.546;9.974;2023-07-31T13:00:27;14.60;;;9.30;;
31061;SDS011;17724;53.546;9.974;2023-07-31T13:04:27;15.07;;;7.83;;
31061;SDS011;17724;53.546;9.974;2023-07-31T13:08:28;24.10;;;13.50;;
31061;SDS011;17724;53.546;9.974;2023-07-31T13:12:28;12.83;;;7.00;;
31061;SDS011;17724;53.546;9.974;2023-07-31T13:16:29;14.80;;;7.37;;
31061;SDS011;17724;53.546;9.974;2023-07-31T13:20:29;15.20;;;7.20;;
31061;SDS011;17724;53.546;9.974;2023-07-31T13:24:30;20.30;;;9.53;;
31061;SDS011;17724;53.546;9.974;2023-07-31T13:28:30;9.53;;;4.27;;
31061;SDS011;17724;53.546;9.974;2023-07-31T13:32:31;21.67;;;10.27;;
31061;SDS011;17724;53.546;9.974;2023-07-31T13:36:31;20.30;;;9.93;;
31061;SDS011;17724;53.546;9.974;2023-07-31T13:40:34;12.63;;;5.70;;
31061;SDS011;17724;53.546;9.974;2023-07-31T13:44:34;10.03;;;3.80;;
31061;SDS011;17724;53.546;9.974;2023-07-31T13:48:35;15.57;;;8.50;;
31061;SDS011;17724;53.546;9.974;2023-07-31T13:52:36;8.03;;;3.07;;
31061;SDS011;17724;53.546;9.974;2023-07-31T13:56:37;7.40;;;2.50;;
31061;SDS011;17724;53.546;9.974;2023-07-31T14:00:37;27.63;;;23.33;;
31061;SDS011;17724;53.546;9.974;2023-07-31T14:04:38;6.80;;;1.67;;
31061;SDS011;17724;53.546;9.974;2023-07-31T14:08:38;11.00;;;5.23;;
31061;SDS011;17724;53.546;9.974;2023-07-31T14:12:39;9.60;;;5.27;;
31061;SDS011;17724;53.546;9.974;2023-07-31T14:16:39;7.33;;;2.20;;
31061;SDS011;17724;53.546;9.974;2023-07-31T14:20:40;13.30;;;8.17;;
31061;SDS011;17724;53.546;9.974;2023-07-31T14:24:41;22.70;;;17.10;;
31061;SDS011;17724;53.546;9.974;2023-07-31T14:28:41;10.37;;;4.87;;
31061;SDS011;17724;53.546;9.974;2023-07-31T14:32:42;8.33;;;3.50;;
31061;SDS011;17724;53.546;9.974;2023-07-31T14:36:42;9.53;;;5.17;;
31061;SDS011;17724;53.546;9.974;2023-07-31T14:40:44;22.07;;;13.27;;
31061;SDS011;17724;53.546;9.974;2023-07-31T14:44:45;13.30;;;6.70;;
31061;SDS011;17724;53.546;9.974;2023-07-31T14:48:47;10.80;;;7.53;;
31061;SDS011;17724;53.546;9.974;2023-07-31T14:52:48;10.50;;;5.33;;
31061;SDS011;17724;53.546;9.974;2023-07-31T14:56:49;12.43;;;8.00;;
31061;SDS011;17724;53.546;9.974;2023-07-31T15:00:49;11.10;;;5.57;;
31061;SDS011;17724;53.546;9.974;2023-07-31T15:04:50;7.57;;;2.07;;
31061;SDS011;17724;53.546;9.974;2023-07-31T15:08:50;8.47;;;3.90;;
31061;SDS011;17724;53.546;9.974;2023-07-31T15:12:51;12.93;;;7.20;;
31061;SDS011;17724;53.546;9.974;2023-07-31T15:16:51;9.20;;;4.53;;
31061;SDS011;17724;53.546;9.974;2023-07-31T15:20:53;8.63;;;3.80;;
31061;SDS011;17724;53.546;9.974;2023-07-31T15:24:54;9.67;;;4.17;;
31061;SDS011;17724;53.546;9.974;2023-07-31T15:29:01;9.63;;;5.10;;
31061;SDS011;17724;53.546;9.974;2023-07-31T15:33:05;10.60;;;4.67;;
31061;SDS011;17724;53.546;9.974;2023-07-31T15:37:05;8.70;;;3.80;;
31061;SDS011;17724;53.546;9.974;2023-07-31T15:41:06;7.20;;;2.53;;
31061;SDS011;17724;53.546;9.974;2023-07-31T15:45:08;8.97;;;4.20;;
31061;SDS011;17724;53.546;9.974;2023-07-31T15:49:10;13.53;;;6.50;;
31061;SDS011;17724;53.546;9.974;2023-07-31T15:53:10;7.70;;;3.40;;
31061;SDS011;17724;53.546;9.974;2023-07-31T15:57:11;14.73;;;11.90;;
31061;SDS011;17724;53.546;9.974;2023-07-31T16:01:11;8.90;;;4.53;;
31061;SDS011;17724;53.546;9.974;2023-07-31T16:05:12;15.50;;;10.53;;
31061;SDS011;17724;53.546;9.974;2023-07-31T16:09:13;12.70;;;7.77;;
31061;SDS011;17724;53.546;9.974;2023-07-31T16:13:14;15.93;;;9.70;;
31061;SDS011;17724;53.546;9.974;2023-07-31T16:17:14;17.00;;;10.27;;
31061;SDS011;17724;53.546;9.974;2023-07-31T16:21:15;27.03;;;21.30;;
31061;SDS011;17724;53.546;9.974;2023-07-31T16:25:16;15.60;;;10.53;;
31061;SDS011;17724;53.546;9.974;2023-07-31T16:29:16;22.47;;;13.47;;
31061;SDS011;17724;53.546;9.974;2023-07-31T16:33:17;10.30;;;3.90;;
31061;SDS011;17724;53.546;9.974;2023-07-31T16:37:17;10.80;;;6.47;;
31061;SDS011;17724;53.546;9.974;2023-07-31T16:41:18;15.97;;;7.47;;
31061;SDS011;17724;53.546;9.974;2023-07-31T16:45:18;9.60;;;4.37;;
31061;SDS011;17724;53.546;9.974;2023-07-31T16:49:19;14.53;;;7.27;;
31061;SDS011;17724;53.546;9.974;2023-07-31T16:53:19;11.40;;;5.20;;
31061;SDS011;17724;53.546;9.974;2023-07-31T16:57:19;52.57;;;37.80;;
31061;SDS011;17724;53.546;9.974;2023-07-31T17:01:21;43.47;;;38.77;;
31061;SDS011;17724;53.546;9.974;2023-07-31T17:05:22;14.57;;;11.27;;
31061;SDS011;17724;53.546;9.974;2023-07-31T17:09:23;25.73;;;21.00;;
31061;SDS011;17724;53.546;9.974;2023-07-31T17:13:24;44.07;;;38.43;;
31061;SDS011;17724;53.546;9.974;2023-07-31T17:17:25;66.57;;;56.47;;
31061;SDS011;17724;53.546;9.974;2023-07-31T17:21:26;65.07;;;53.33;;
31061;SDS011;17724;53.546;9.974;2023-07-31T17:25:28;94.53;;;84.63;;
31061;SDS011;17724;53.546;9.974;2023-07-31T17:29:28;49.10;;;43.00;;
31061;SDS011;17724;53.546;9.974;2023-07-31T17:33:30;47.13;;;42.13;;
31061;SDS011;17724;53.546;9.974;2023-07-31T17:37:30;88.40;;;79.40;;
31061;SDS011;17724;53.546;9.974;2023-07-31T17:41:31;40.73;;;36.17;;
31061;SDS011;17724;53.546;9.974;2023-07-31T17:45:35;35.50;;;30.60;;
31061;SDS011;17724;53.546;9.974;2023-07-31T17:49:35;18.20;;;14.90;;
31061;SDS011;17724;53.546;9.974;2023-07-31T17:53:36;21.10;;;15.17;;
31061;SDS011;17724;53.546;9.974;2023-07-31T17:57:36;14.70;;;9.87;;
31061;SDS011;17724;53.546;9.974;2023-07-31T18:01:37;25.47;;;21.43;;
31061;SDS011;17724;53.546;9.974;2023-07-31T18:05:38;14.53;;;11.30;;
31061;SDS011;17724;53.546;9.974;2023-07-31T18:09:39;29.23;;;19.53;;
31061;SDS011;17724;53.546;9.974;2023-07-31T18:13:39;45.27;;;37.53;;
31061;SDS011;17724;53.546;9.974;2023-07-31T18:17:40;17.80;;;14.20;;
31061;SDS011;17724;53.546;9.974;2023-07-31T18:21:41;14.47;;;8.50;;
31061;SDS011;17724;53.546;9.974;2023-07-31T18:25:41;23.83;;;15.57;;
31061;SDS011;17724;53.546;9.974;2023-07-31T18:29:46;58.27;;;52.63;;
31061;SDS011;17724;53.546;9.974;2023-07-31T18:33:47;43.53;;;38.30;;
31061;SDS011;17724;53.546;9.974;2023-07-31T18:37:47;19.07;;;16.10;;
31061;SDS011;17724;53.546;9.974;2023-07-31T18:41:48;21.73;;;14.73;;
31061;SDS011;17724;53.546;9.974;2023-07-31T18:45:49;17.87;;;14.30;;
31061;SDS011;17724;53.546;9.974;2023-07-31T18:49:49;15.90;;;10.30;;
31061;SDS011;17724;53.546;9.974;2023-07-31T18:53:50;13.00;;;5.90;;
31061;SDS011;17724;53.546;9.974;2023-07-31T18:57:50;19.87;;;13.97;;
31061;SDS011;17724;53.546;9.974;2023-07-31T19:01:51;26.60;;;23.40;;
31061;SDS011;17724;53.546;9.974;2023-07-31T19:05:59;38.40;;;33.93;;
31061;SDS011;17724;53.546;9.974;2023-07-31T19:10:03;13.03;;;8.23;;
31061;SDS011;17724;53.546;9.974;2023-07-31T19:14:04;17.87;;;11.73;;
31061;SDS011;17724;53.546;9.974;2023-07-31T19:18:05;12.27;;;6.33;;
31061;SDS011;17724;53.546;9.974;2023-07-31T19:22:05;17.50;;;12.90;;
31061;SDS011;17724;53.546;9.974;2023-07-31T19:26:06;13.90;;;7.77;;
31061;SDS011;17724;53.546;9.974;2023-07-31T19:30:07;11.30;;;7.10;;
31061;SDS011;17724;53.546;9.974;2023-07-31T19:34:08;9.70;;;5.50;;
31061;SDS011;17724;53.546;9.974;2023-07-31T19:38:09;10.20;;;5.00;;
31061;SDS011;17724;53.546;9.974;2023-07-31T19:42:10;8.73;;;4.30;;
31061;SDS011;17724;53.546;9.974;2023-07-31T19:46:11;9.87;;;6.10;;
31061;SDS011;17724;53.546;9.974;2023-07-31T19:50:11;12.30;;;8.90;;
31061;SDS011;17724;53.546;9.974;2023-07-31T19:54:12;10.03;;;5.60;;
31061;SDS011;17724;53.546;9.974;2023-07-31T19:58:12;11.37;;;6.40;;
31061;SDS011;17724;53.546;9.974;2023-07-31T20:02:13;10.30;;;5.33;;
31061;SDS011;17724;53.546;9.974;2023-07-31T20:06:14;11.10;;;5.50;;
31061;SDS011;17724;53.546;9.974;2023-07-31T20:10:14;9.83;;;5.10;;
31061;SDS011;17724;53.546;9.974;2023-07-31T20:14:15;11.67;;;6.40;;
31061;SDS011;17724;53.546;9.974;2023-07-31T20:18:16;12.00;;;7.20;;
31061;SDS011;17724;53.546;9.974;2023-07-31T20:22:16;9.80;;;5.27;;
31061;SDS011;17724;53.546;9.974;2023-07-31T20:26:18;11.10;;;5.57;;
31061;SDS011;17724;53.546;9.974;2023-07-31T20:30:20;9.30;;;5.40;;
31061;SDS011;17724;53.546;9.974;2023-07-31T20:34:20;9.10;;;4.57;;
31061;SDS011;17724;53.546;9.974;2023-07-31T20:38:21;9.80;;;5.23;;
31061;SDS011;17724;53.546;9.974;2023-07-31T20:42:21;8.50;;;3.77;;
31061;SDS011;17724;53.546;9.974;2023-07-31T20:46:26;7.73;;;3.73;;
31061;SDS011;17724;53.546;9.974;2023-07-31T20:50:26;7.50;;;3.40;;
31061;SDS011;17724;53.546;9.974;2023-07-31T20:54:27;7.73;;;3.67;;
31061;SDS011;17724;53.546;9.974;2023-07-31T20:58:28;8.77;;;3.80;;
31061;SDS011;17724;53.546;9.974;2023-07-31T21:02:28;8.97;;;3.33;;
31061;SDS011;17724;53.546;9.974;2023-07-31T21:06:29;7.60;;;2.90;;
31061;SDS011;17724;53.546;9.974;2023-07-31T21:10:29;7.40;;;2.77;;
31061;SDS011;17724;53.546;9.974;2023-07-31T21:14:30;7.60;;;2.30;;
31061;SDS011;17724;53.546;9.974;2023-07-31T21:18:31;7.20;;;2.70;;
31061;SDS011;17724;53.546;9.974;2023-07-31T21:22:31;7.83;;;2.57;;
31061;SDS011;17724;53.546;9.974;2023-07-31T21:26:32;7.50;;;2.57;;
31061;SDS011;17724;53.546;9.974;2023-07-31T21:30:32;7.10;;;2.70;;
31061;SDS011;17724;53.546;9.974;2023-07-31T21:34:34;7.97;;;2.93;;
31061;SDS011;17724;53.546;9.974;2023-07-31T21:38:34;8.03;;;3.20;;
31061;SDS011;17724;53.546;9.974;2023-07-31T21:42:35;7.47;;;2.30;;
31061;SDS011;17724;53.546;9.974;2023-07-31T21:46:35;7.17;;;1.80;;
31061;SDS011;17724;53.546;9.974;2023-07-31T21:50:36;7.43;;;2.50;;
31061;SDS011;17724;53.546;9.974;2023-07-31T21:54:36;6.63;;;2.10;;
31061;SDS011;17724;53.546;9.974;2023-07-31T21:58:37;7.40;;;2.30;;
31061;SDS011;17724;53.546;9.974;2023-07-31T22:02:37;7.07;;;1.90;;
31061;SDS011;17724;53.546;9.974;2023-07-31T22:06:38;7.67;;;1.50;;
31061;SDS011;17724;53.546;9.974;2023-07-31T22:10:39;6.83;;;1.80;;
31061;SDS011;17724;53.546;9.974;2023-07-31T22:14:39;6.93;;;1.53;;
31061;SDS011;17724;53.546;9.974;2023-07-31T22:18:40;7.33;;;1.50;;
31061;SDS011;17724;53.546;9.974;2023-07-31T22:22:40;7.20;;;2.10;;
31061;SDS011;17724;53.546;9.974;2023-07-31T22:26:41;8.00;;;2.30;;
31061;SDS011;17724;53.546;9.974;2023-07-31T22:30:41;7.57;;;2.00;;
31061;SDS011;17724;53.546;9.974;2023-07-31T22:34:42;7.00;;;1.90;;
31061;SDS011;17724;53.546;9.974;2023-07-31T22:38:42;7.70;;;2.00;;
31061;SDS011;17724;53.546;9.974;2023-07-31T22:42:43;7.90;;;2.20;;
31061;SDS011;17724;53.546;9.974;2023-07-31T22:46:43;7.17;;;1.77;;
31061;SDS011;17724;53.546;9.974;2023-07-31T22:50:44;6.77;;;1.93;;
31061;SDS011;17724;53.546;9.974;2023-07-31T22:54:44;7.30;;;2.53;;
31061;SDS011;17724;53.546;9.974;2023-07-31T22:58:45;7.50;;;2.20;;
31061;SDS011;17724;53.546;9.974;2023-07-31T23:02:45;6.73;;;2.17;;
31061;SDS011;17724;53.546;9.974;2023-07-31T23:06:46;7.57;;;2.83;;
31061;SDS011;17724;53.546;9.974;2023-07-31T23:10:47;7.20;;;2.40;;
31061;SDS011;17724;53.546;9.974;2023-07-31T23:14:48;7.40;;;2.83;;
31061;SDS011;17724;53.546;9.974;2023-07-31T23:18:48;6.83;;;2.30;;
31061;SDS011;17724;53.546;9.974;2023-07-31T23:22:49;6.70;;;2.20;;
31061;SDS011;17724;53.546;9.974;2023-07-31T23:26:49;7.30;;;2.30;;
31061;SDS011;17724;53.546;9.974;2023-07-31T23:30:49;7.23;;;2.77;;
31061;SDS011;17724;53.546;9.974;2023-07-31T23:34:50;7.73;;;2.77;;
31061;SDS011;17724;53.546;9.974;2023-07-31T23:38:51;7.57;;;2.53;;
31061;SDS011;17724;53.546;9.974;2023-07-31T23:42:51;8.20;;;2.90;;
31061;SDS011;17724;53.546;9.974;2023-07-31T23:46:52;7.27;;;2.53;;
31061;SDS011;17724;53.546;9.974;2023-07-31T23:50:53;9.57;;;2.77;;
31061;SDS011;17724;53.546;9.974;2023-07-31T23:54:55;7.03;;;2.33;;
31061;SDS011;17724;53.546;9.974;2023-07-31T23:58:56;8.93;;;2.70;;
